sensor_id;sensor_type;location;lat;lon;timestamp;P1;durP1;ratioP1;P2;durP2;ratioP2
70293;SDS011;74367;35.280;-77.632;2024-01-16T00:01:57;5.68;;;1.50;;
70293;SDS011;74367;35.280;-77.632;2024-01-16T00:04:23;3.90;;;1.20;;
70293;SDS011;74367;35.280;-77.632;2024-01-16T00:06:52;5.30;;;1.20;;
70293;SDS011;74367;35.280;-77.632;2024-01-16T00:09:18;4.80;;;0.93;;
70293;SDS011;74367;35.280;-77.632;2024-01-16T00:11:45;5.90;;;1.60;;
70293;SDS011;74367;35.280;-77.632;2024-01-16T00:14:11;6.57;;;1.23;;
70293;SDS011;74367;35.280;-77.632;2024-01-16T00:16:43;5.07;;;1.30;;
70293;SDS011;74367;35.280;-77.632;2024-01-16T00:19:13;6.43;;;1.35;;
70293;SDS011;74367;35.280;-77.632;2024-01-16T00:21:40;3.75;;;1.58;;
70293;SDS011;74367;35.280;-77.632;2024-01-16T00:24:06;6.53;;;1.00;;
70293;SDS011;74367;35.280;-77.632;2024-01-16T00:26:33;8.07;;;1.20;;
70293;SDS011;74367;35.280;-77.632;2024-01-16T00:28:59;3.70;;;0.77;;
70293;SDS011;74367;35.280;-77.632;2024-01-16T00:31:24;3.72;;;1.30;;
70293;SDS011;74367;35.280;-77.632;2024-01-16T00:33:51;4.65;;;1.05;;
70293;SDS011;74367;35.280;-77.632;2024-01-16T00:36:17;5.18;;;1.20;;
70293;SDS011;74367;35.280;-77.632;2024-01-16T00:38:43;4.27;;;1.27;;
70293;SDS011;74367;35.280;-77.632;2024-01-16T00:41:10;3.90;;;1.03;;
70293;SDS011;74367;35.280;-77.632;2024-01-16T00:43:37;4.13;;;1.30;;
70293;SDS011;74367;35.280;-77.632;2024-01-16T00:46:03;7.00;;;1.50;;
70293;SDS011;74367;35.280;-77.632;2024-01-16T00:48:29;4.88;;;1.40;;
70293;SDS011;74367;35.280;-77.632;2024-01-16T00:50:55;4.63;;;1.43;;
70293;SDS011;74367;35.280;-77.632;2024-01-16T00:53:21;5.15;;;1.08;;
70293;SDS011;74367;35.280;-77.632;2024-01-16T00:55:47;5.28;;;1.42;;
70293;SDS011;74367;35.280;-77.632;2024-01-16T00:58:12;4.20;;;1.33;;
70293;SDS011;74367;35.280;-77.632;2024-01-16T01:00:38;5.27;;;1.70;;
70293;SDS011;74367;35.280;-77.632;2024-01-16T01:03:04;6.93;;;1.52;;
70293;SDS011;74367;35.280;-77.632;2024-01-16T01:05:30;5.38;;;1.05;;
70293;SDS011;74367;35.280;-77.632;2024-01-16T01:07:56;6.87;;;1.30;;
70293;SDS011;74367;35.280;-77.632;2024-01-16T01:10:23;4.75;;;1.52;;
70293;SDS011;74367;35.280;-77.632;2024-01-16T01:12:50;5.05;;;1.40;;
70293;SDS011;74367;35.280;-77.632;2024-01-16T01:15:18;4.40;;;1.25;;
70293;SDS011;74367;35.280;-77.632;2024-01-16T01:17:45;4.72;;;1.40;;
70293;SDS011;74367;35.280;-77.632;2024-01-16T01:20:14;5.17;;;0.80;;
70293;SDS011;74367;35.280;-77.632;2024-01-16T01:22:40;5.47;;;1.20;;
70293;SDS011;74367;35.280;-77.632;2024-01-16T01:25:07;5.47;;;1.40;;
70293;SDS011;74367;35.280;-77.632;2024-01-16T01:27:33;4.80;;;0.93;;
70293;SDS011;74367;35.280;-77.632;2024-01-16T01:29:59;6.47;;;1.30;;
70293;SDS011;74367;35.280;-77.632;2024-01-16T01:32:25;4.27;;;1.10;;
70293;SDS011;74367;35.280;-77.632;2024-01-16T01:34:52;5.15;;;1.38;;
70293;SDS011;74367;35.280;-77.632;2024-01-16T01:37:18;6.57;;;1.45;;
70293;SDS011;74367;35.280;-77.632;2024-01-16T01:39:44;3.80;;;1.10;;
70293;SDS011;74367;35.280;-77.632;2024-01-16T01:42:10;6.00;;;1.20;;
70293;SDS011;74367;35.280;-77.632;2024-01-16T01:44:36;5.55;;;1.33;;
70293;SDS011;74367;35.280;-77.632;2024-01-16T01:47:01;4.70;;;1.13;;
70293;SDS011;74367;35.280;-77.632;2024-01-16T01:49:28;6.78;;;1.85;;
70293;SDS011;74367;35.280;-77.632;2024-01-16T01:51:54;5.03;;;1.30;;
70293;SDS011;74367;35.280;-77.632;2024-01-16T01:54:20;4.15;;;1.35;;
70293;SDS011;74367;35.280;-77.632;2024-01-16T01:56:47;7.30;;;1.77;;
70293;SDS011;74367;35.280;-77.632;2024-01-16T01:59:14;4.45;;;0.68;;
70293;SDS011;74367;35.280;-77.632;2024-01-16T02:01:44;7.78;;;1.23;;
70293;SDS011;74367;35.280;-77.632;2024-01-16T02:04:16;4.67;;;0.90;;
70293;SDS011;74367;35.280;-77.632;2024-01-16T02:06:43;4.45;;;0.85;;
70293;SDS011;74367;35.280;-77.632;2024-01-16T02:09:10;4.60;;;1.13;;
70293;SDS011;74367;35.280;-77.632;2024-01-16T02:11:40;5.75;;;1.17;;
70293;SDS011;74367;35.280;-77.632;2024-01-16T02:14:06;4.13;;;1.10;;
70293;SDS011;74367;35.280;-77.632;2024-01-16T02:16:39;4.93;;;1.10;;
70293;SDS011;74367;35.280;-77.632;2024-01-16T02:19:07;4.32;;;1.13;;
70293;SDS011;74367;35.280;-77.632;2024-01-16T02:21:43;5.32;;;1.70;;
70293;SDS011;74367;35.280;-77.632;2024-01-16T02:24:17;5.93;;;1.17;;
70293;SDS011;74367;35.280;-77.632;2024-01-16T02:26:44;5.22;;;1.65;;
70293;SDS011;74367;35.280;-77.632;2024-01-16T02:29:10;4.63;;;1.00;;
70293;SDS011;74367;35.280;-77.632;2024-01-16T02:31:36;4.50;;;1.23;;
70293;SDS011;74367;35.280;-77.632;2024-01-16T02:34:02;5.55;;;1.50;;
70293;SDS011;74367;35.280;-77.632;2024-01-16T02:36:32;5.15;;;1.10;;
70293;SDS011;74367;35.280;-77.632;2024-01-16T02:38:59;5.47;;;1.50;;
70293;SDS011;74367;35.280;-77.632;2024-01-16T02:41:24;5.80;;;1.80;;
70293;SDS011;74367;35.280;-77.632;2024-01-16T02:43:50;4.93;;;1.25;;
70293;SDS011;74367;35.280;-77.632;2024-01-16T02:46:16;5.15;;;1.17;;
70293;SDS011;74367;35.280;-77.632;2024-01-16T02:48:43;5.00;;;1.25;;
70293;SDS011;74367;35.280;-77.632;2024-01-16T02:51:09;5.77;;;1.20;;
70293;SDS011;74367;35.280;-77.632;2024-01-16T02:53:35;6.63;;;1.67;;
70293;SDS011;74367;35.280;-77.632;2024-01-16T02:56:01;4.47;;;1.70;;
70293;SDS011;74367;35.280;-77.632;2024-01-16T02:58:27;3.92;;;1.63;;
70293;SDS011;74367;35.280;-77.632;2024-01-16T03:00:54;6.20;;;1.40;;
70293;SDS011;74367;35.280;-77.632;2024-01-16T03:03:20;6.03;;;1.30;;
70293;SDS011;74367;35.280;-77.632;2024-01-16T03:05:47;5.28;;;1.42;;
70293;SDS011;74367;35.280;-77.632;2024-01-16T03:08:13;4.45;;;0.98;;
70293;SDS011;74367;35.280;-77.632;2024-01-16T03:10:39;4.60;;;1.73;;
70293;SDS011;74367;35.280;-77.632;2024-01-16T03:13:05;7.28;;;1.40;;
70293;SDS011;74367;35.280;-77.632;2024-01-16T03:15:31;4.50;;;1.00;;
70293;SDS011;74367;35.280;-77.632;2024-01-16T03:17:57;5.35;;;1.30;;
70293;SDS011;74367;35.280;-77.632;2024-01-16T03:20:23;5.53;;;1.17;;
70293;SDS011;74367;35.280;-77.632;2024-01-16T03:22:50;5.22;;;1.60;;
70293;SDS011;74367;35.280;-77.632;2024-01-16T03:25:16;5.73;;;0.83;;
70293;SDS011;74367;35.280;-77.632;2024-01-16T03:27:42;5.53;;;1.23;;
70293;SDS011;74367;35.280;-77.632;2024-01-16T03:30:09;4.18;;;1.17;;
70293;SDS011;74367;35.280;-77.632;2024-01-16T03:32:35;4.05;;;1.33;;
70293;SDS011;74367;35.280;-77.632;2024-01-16T03:35:02;11.05;;;1.30;;
70293;SDS011;74367;35.280;-77.632;2024-01-16T03:37:29;5.67;;;1.30;;
70293;SDS011;74367;35.280;-77.632;2024-01-16T03:39:55;4.50;;;1.10;;
70293;SDS011;74367;35.280;-77.632;2024-01-16T03:42:22;6.43;;;1.60;;
70293;SDS011;74367;35.280;-77.632;2024-01-16T03:44:48;5.38;;;1.52;;
70293;SDS011;74367;35.280;-77.632;2024-01-16T03:47:14;3.72;;;1.35;;
70293;SDS011;74367;35.280;-77.632;2024-01-16T03:49:40;5.87;;;1.53;;
70293;SDS011;74367;35.280;-77.632;2024-01-16T03:52:07;4.80;;;1.30;;
70293;SDS011;74367;35.280;-77.632;2024-01-16T03:54:33;5.25;;;1.65;;
70293;SDS011;74367;35.280;-77.632;2024-01-16T03:56:58;5.35;;;1.45;;
70293;SDS011;74367;35.280;-77.632;2024-01-16T03:59:24;4.70;;;1.60;;
70293;SDS011;74367;35.280;-77.632;2024-01-16T04:01:50;9.10;;;1.45;;
70293;SDS011;74367;35.280;-77.632;2024-01-16T04:04:17;4.28;;;1.50;;
70293;SDS011;74367;35.280;-77.632;2024-01-16T04:06:48;4.28;;;1.33;;
70293;SDS011;74367;35.280;-77.632;2024-01-16T04:09:14;4.40;;;1.00;;
70293;SDS011;74367;35.280;-77.632;2024-01-16T04:11:40;4.10;;;1.30;;
70293;SDS011;74367;35.280;-77.632;2024-01-16T04:14:06;4.80;;;1.60;;
70293;SDS011;74367;35.280;-77.632;2024-01-16T04:16:32;6.93;;;1.70;;
70293;SDS011;74367;35.280;-77.632;2024-01-16T04:18:58;6.00;;;1.87;;
70293;SDS011;74367;35.280;-77.632;2024-01-16T04:21:24;5.13;;;1.33;;
70293;SDS011;74367;35.280;-77.632;2024-01-16T04:23:51;7.05;;;1.50;;
70293;SDS011;74367;35.280;-77.632;2024-01-16T04:26:17;4.85;;;1.30;;
70293;SDS011;74367;35.280;-77.632;2024-01-16T04:28:43;5.57;;;1.37;;
70293;SDS011;74367;35.280;-77.632;2024-01-16T04:31:09;6.93;;;1.50;;
70293;SDS011;74367;35.280;-77.632;2024-01-16T04:33:37;4.68;;;1.48;;
70293;SDS011;74367;35.280;-77.632;2024-01-16T04:36:04;4.65;;;1.50;;
70293;SDS011;74367;35.280;-77.632;2024-01-16T04:38:31;5.10;;;1.45;;
70293;SDS011;74367;35.280;-77.632;2024-01-16T04:40:56;4.20;;;1.67;;
70293;SDS011;74367;35.280;-77.632;2024-01-16T04:43:22;4.85;;;1.30;;
70293;SDS011;74367;35.280;-77.632;2024-01-16T04:45:48;5.38;;;1.30;;
70293;SDS011;74367;35.280;-77.632;2024-01-16T04:48:14;4.70;;;1.33;;
70293;SDS011;74367;35.280;-77.632;2024-01-16T04:50:40;5.05;;;1.15;;
70293;SDS011;74367;35.280;-77.632;2024-01-16T04:53:06;3.80;;;1.38;;
70293;SDS011;74367;35.280;-77.632;2024-01-16T04:55:32;4.40;;;1.40;;
70293;SDS011;74367;35.280;-77.632;2024-01-16T04:57:58;4.30;;;1.27;;
70293;SDS011;74367;35.280;-77.632;2024-01-16T05:00:25;4.50;;;1.45;;
70293;SDS011;74367;35.280;-77.632;2024-01-16T05:02:51;5.93;;;1.40;;
70293;SDS011;74367;35.280;-77.632;2024-01-16T05:05:18;6.38;;;1.00;;
70293;SDS011;74367;35.280;-77.632;2024-01-16T05:07:44;4.63;;;1.47;;
70293;SDS011;74367;35.280;-77.632;2024-01-16T05:10:10;4.93;;;1.08;;
70293;SDS011;74367;35.280;-77.632;2024-01-16T05:12:40;5.60;;;1.05;;
70293;SDS011;74367;35.280;-77.632;2024-01-16T05:15:06;6.47;;;1.40;;
70293;SDS011;74367;35.280;-77.632;2024-01-16T05:17:33;4.22;;;1.35;;
70293;SDS011;74367;35.280;-77.632;2024-01-16T05:19:59;4.90;;;1.57;;
70293;SDS011;74367;35.280;-77.632;2024-01-16T05:22:25;4.15;;;1.50;;
70293;SDS011;74367;35.280;-77.632;2024-01-16T05:24:51;4.88;;;1.75;;
70293;SDS011;74367;35.280;-77.632;2024-01-16T05:27:17;6.35;;;1.30;;
70293;SDS011;74367;35.280;-77.632;2024-01-16T05:29:43;5.97;;;1.13;;
70293;SDS011;74367;35.280;-77.632;2024-01-16T05:32:09;6.77;;;1.37;;
70293;SDS011;74367;35.280;-77.632;2024-01-16T05:34:35;4.63;;;1.40;;
70293;SDS011;74367;35.280;-77.632;2024-01-16T05:37:01;6.00;;;1.45;;
70293;SDS011;74367;35.280;-77.632;2024-01-16T05:39:27;5.53;;;1.73;;
70293;SDS011;74367;35.280;-77.632;2024-01-16T05:41:53;4.45;;;1.08;;
70293;SDS011;74367;35.280;-77.632;2024-01-16T05:44:19;3.55;;;0.98;;
70293;SDS011;74367;35.280;-77.632;2024-01-16T05:46:44;5.55;;;1.23;;
70293;SDS011;74367;35.280;-77.632;2024-01-16T05:49:10;5.10;;;0.90;;
70293;SDS011;74367;35.280;-77.632;2024-01-16T05:51:36;5.13;;;1.20;;
70293;SDS011;74367;35.280;-77.632;2024-01-16T05:54:02;3.53;;;1.10;;
70293;SDS011;74367;35.280;-77.632;2024-01-16T05:56:28;4.30;;;1.30;;
70293;SDS011;74367;35.280;-77.632;2024-01-16T05:58:56;4.77;;;1.17;;
70293;SDS011;74367;35.280;-77.632;2024-01-16T06:01:22;6.43;;;1.17;;
70293;SDS011;74367;35.280;-77.632;2024-01-16T06:03:51;3.40;;;0.98;;
70293;SDS011;74367;35.280;-77.632;2024-01-16T06:06:17;4.45;;;1.13;;
70293;SDS011;74367;35.280;-77.632;2024-01-16T06:08:44;3.60;;;0.80;;
70293;SDS011;74367;35.280;-77.632;2024-01-16T06:11:10;4.20;;;1.00;;
70293;SDS011;74367;35.280;-77.632;2024-01-16T06:13:38;5.72;;;1.15;;
70293;SDS011;74367;35.280;-77.632;2024-01-16T06:16:06;5.35;;;1.08;;
70293;SDS011;74367;35.280;-77.632;2024-01-16T06:18:35;5.00;;;1.50;;
70293;SDS011;74367;35.280;-77.632;2024-01-16T06:21:01;6.80;;;1.33;;
70293;SDS011;74367;35.280;-77.632;2024-01-16T06:23:28;7.70;;;1.00;;
70293;SDS011;74367;35.280;-77.632;2024-01-16T06:25:55;3.67;;;0.75;;
70293;SDS011;74367;35.280;-77.632;2024-01-16T06:28:21;5.32;;;1.30;;
70293;SDS011;74367;35.280;-77.632;2024-01-16T06:30:46;7.17;;;1.70;;
70293;SDS011;74367;35.280;-77.632;2024-01-16T06:33:13;4.00;;;0.90;;
70293;SDS011;74367;35.280;-77.632;2024-01-16T06:35:39;5.53;;;1.67;;
70293;SDS011;74367;35.280;-77.632;2024-01-16T06:38:05;4.05;;;1.27;;
70293;SDS011;74367;35.280;-77.632;2024-01-16T06:40:31;4.33;;;1.13;;
70293;SDS011;74367;35.280;-77.632;2024-01-16T06:42:57;6.17;;;1.20;;
70293;SDS011;74367;35.280;-77.632;2024-01-16T06:45:23;4.60;;;1.73;;
70293;SDS011;74367;35.280;-77.632;2024-01-16T06:47:51;3.65;;;0.85;;
70293;SDS011;74367;35.280;-77.632;2024-01-16T06:50:17;6.60;;;1.70;;
70293;SDS011;74367;35.280;-77.632;2024-01-16T06:52:42;6.37;;;0.80;;
70293;SDS011;74367;35.280;-77.632;2024-01-16T06:55:08;5.18;;;1.67;;
70293;SDS011;74367;35.280;-77.632;2024-01-16T06:57:34;4.30;;;0.98;;
70293;SDS011;74367;35.280;-77.632;2024-01-16T07:00:00;3.87;;;1.03;;
70293;SDS011;74367;35.280;-77.632;2024-01-16T07:02:26;3.85;;;0.80;;
70293;SDS011;74367;35.280;-77.632;2024-01-16T07:04:52;4.88;;;1.48;;
70293;SDS011;74367;35.280;-77.632;2024-01-16T07:07:18;5.07;;;1.23;;
70293;SDS011;74367;35.280;-77.632;2024-01-16T07:09:45;4.63;;;1.60;;
70293;SDS011;74367;35.280;-77.632;2024-01-16T07:12:11;7.05;;;1.60;;
70293;SDS011;74367;35.280;-77.632;2024-01-16T07:14:37;5.47;;;1.58;;
70293;SDS011;74367;35.280;-77.632;2024-01-16T07:17:05;3.97;;;1.33;;
70293;SDS011;74367;35.280;-77.632;2024-01-16T07:19:32;4.83;;;1.50;;
70293;SDS011;74367;35.280;-77.632;2024-01-16T07:21:58;4.32;;;1.20;;
70293;SDS011;74367;35.280;-77.632;2024-01-16T07:24:24;6.65;;;1.63;;
70293;SDS011;74367;35.280;-77.632;2024-01-16T07:26:50;5.85;;;1.63;;
70293;SDS011;74367;35.280;-77.632;2024-01-16T07:29:16;5.60;;;1.37;;
70293;SDS011;74367;35.280;-77.632;2024-01-16T07:31:42;4.03;;;1.38;;
70293;SDS011;74367;35.280;-77.632;2024-01-16T07:34:08;4.95;;;1.45;;
70293;SDS011;74367;35.280;-77.632;2024-01-16T07:36:34;7.07;;;1.43;;
70293;SDS011;74367;35.280;-77.632;2024-01-16T07:39:00;5.40;;;1.60;;
70293;SDS011;74367;35.280;-77.632;2024-01-16T07:41:26;4.93;;;1.83;;
70293;SDS011;74367;35.280;-77.632;2024-01-16T07:43:52;7.03;;;1.50;;
70293;SDS011;74367;35.280;-77.632;2024-01-16T07:46:18;6.73;;;1.43;;
70293;SDS011;74367;35.280;-77.632;2024-01-16T07:48:44;5.10;;;1.73;;
70293;SDS011;74367;35.280;-77.632;2024-01-16T07:51:09;5.72;;;1.50;;
70293;SDS011;74367;35.280;-77.632;2024-01-16T07:53:35;6.40;;;1.40;;
70293;SDS011;74367;35.280;-77.632;2024-01-16T07:56:01;4.45;;;1.23;;
70293;SDS011;74367;35.280;-77.632;2024-01-16T07:58:28;5.40;;;1.48;;
70293;SDS011;74367;35.280;-77.632;2024-01-16T08:00:54;9.98;;;1.67;;
70293;SDS011;74367;35.280;-77.632;2024-01-16T08:03:20;6.07;;;1.80;;
70293;SDS011;74367;35.280;-77.632;2024-01-16T08:05:46;5.93;;;1.70;;
70293;SDS011;74367;35.280;-77.632;2024-01-16T08:08:12;4.70;;;1.65;;
70293;SDS011;74367;35.280;-77.632;2024-01-16T08:10:40;7.80;;;1.50;;
70293;SDS011;74367;35.280;-77.632;2024-01-16T08:13:07;4.97;;;1.30;;
70293;SDS011;74367;35.280;-77.632;2024-01-16T08:15:33;5.70;;;1.35;;
70293;SDS011;74367;35.280;-77.632;2024-01-16T08:18:00;4.97;;;1.60;;
70293;SDS011;74367;35.280;-77.632;2024-01-16T08:20:26;5.50;;;1.40;;
70293;SDS011;74367;35.280;-77.632;2024-01-16T08:22:52;7.50;;;1.80;;
70293;SDS011;74367;35.280;-77.632;2024-01-16T08:25:18;7.37;;;1.87;;
70293;SDS011;74367;35.280;-77.632;2024-01-16T08:27:44;4.35;;;1.45;;
70293;SDS011;74367;35.280;-77.632;2024-01-16T08:30:10;4.78;;;1.95;;
70293;SDS011;74367;35.280;-77.632;2024-01-16T08:32:37;5.43;;;1.50;;
70293;SDS011;74367;35.280;-77.632;2024-01-16T08:35:04;6.27;;;1.70;;
70293;SDS011;74367;35.280;-77.632;2024-01-16T08:37:32;6.38;;;1.75;;
70293;SDS011;74367;35.280;-77.632;2024-01-16T08:39:58;6.70;;;1.60;;
70293;SDS011;74367;35.280;-77.632;2024-01-16T08:42:24;7.03;;;2.30;;
70293;SDS011;74367;35.280;-77.632;2024-01-16T08:44:50;6.73;;;1.60;;
70293;SDS011;74367;35.280;-77.632;2024-01-16T08:47:16;5.63;;;1.58;;
70293;SDS011;74367;35.280;-77.632;2024-01-16T08:49:42;5.13;;;2.15;;
70293;SDS011;74367;35.280;-77.632;2024-01-16T08:52:09;6.43;;;1.77;;
70293;SDS011;74367;35.280;-77.632;2024-01-16T08:54:35;4.47;;;1.47;;
70293;SDS011;74367;35.280;-77.632;2024-01-16T08:57:01;5.78;;;1.65;;
70293;SDS011;74367;35.280;-77.632;2024-01-16T08:59:27;5.75;;;1.65;;
70293;SDS011;74367;35.280;-77.632;2024-01-16T09:01:53;4.90;;;1.80;;
70293;SDS011;74367;35.280;-77.632;2024-01-16T09:04:19;5.07;;;1.90;;
70293;SDS011;74367;35.280;-77.632;2024-01-16T09:06:45;5.03;;;1.57;;
70293;SDS011;74367;35.280;-77.632;2024-01-16T09:09:11;5.47;;;1.45;;
70293;SDS011;74367;35.280;-77.632;2024-01-16T09:11:37;4.90;;;2.03;;
70293;SDS011;74367;35.280;-77.632;2024-01-16T09:14:03;5.45;;;1.70;;
70293;SDS011;74367;35.280;-77.632;2024-01-16T09:16:29;7.47;;;2.07;;
70293;SDS011;74367;35.280;-77.632;2024-01-16T09:18:55;5.85;;;1.58;;
70293;SDS011;74367;35.280;-77.632;2024-01-16T09:21:21;5.60;;;1.85;;
70293;SDS011;74367;35.280;-77.632;2024-01-16T09:23:47;8.30;;;2.00;;
70293;SDS011;74367;35.280;-77.632;2024-01-16T09:26:13;8.07;;;1.87;;
70293;SDS011;74367;35.280;-77.632;2024-01-16T09:28:39;6.45;;;1.85;;
70293;SDS011;74367;35.280;-77.632;2024-01-16T09:31:05;7.28;;;2.33;;
70293;SDS011;74367;35.280;-77.632;2024-01-16T09:33:33;7.45;;;2.80;;
70293;SDS011;74367;35.280;-77.632;2024-01-16T09:36:01;7.07;;;2.67;;
70293;SDS011;74367;35.280;-77.632;2024-01-16T09:38:27;9.70;;;2.40;;
70293;SDS011;74367;35.280;-77.632;2024-01-16T09:40:53;7.82;;;2.13;;
70293;SDS011;74367;35.280;-77.632;2024-01-16T09:43:22;9.65;;;3.38;;
70293;SDS011;74367;35.280;-77.632;2024-01-16T09:45:48;7.85;;;2.47;;
70293;SDS011;74367;35.280;-77.632;2024-01-16T09:48:16;9.05;;;2.72;;
70293;SDS011;74367;35.280;-77.632;2024-01-16T09:50:43;9.57;;;2.70;;
70293;SDS011;74367;35.280;-77.632;2024-01-16T09:53:09;6.85;;;2.63;;
70293;SDS011;74367;35.280;-77.632;2024-01-16T09:55:36;11.38;;;2.80;;
70293;SDS011;74367;35.280;-77.632;2024-01-16T09:58:02;7.97;;;3.13;;
70293;SDS011;74367;35.280;-77.632;2024-01-16T10:00:32;9.03;;;2.83;;
70293;SDS011;74367;35.280;-77.632;2024-01-16T10:02:59;9.40;;;3.00;;
70293;SDS011;74367;35.280;-77.632;2024-01-16T10:05:26;12.43;;;3.03;;
70293;SDS011;74367;35.280;-77.632;2024-01-16T10:07:52;8.95;;;3.10;;
70293;SDS011;74367;35.280;-77.632;2024-01-16T10:10:20;8.50;;;2.90;;
70293;SDS011;74367;35.280;-77.632;2024-01-16T10:12:47;13.33;;;2.83;;
70293;SDS011;74367;35.280;-77.632;2024-01-16T10:15:15;9.57;;;2.88;;
70293;SDS011;74367;35.280;-77.632;2024-01-16T10:17:42;11.38;;;2.55;;
70293;SDS011;74367;35.280;-77.632;2024-01-16T10:20:08;10.23;;;3.10;;
70293;SDS011;74367;35.280;-77.632;2024-01-16T10:22:39;9.18;;;2.90;;
70293;SDS011;74367;35.280;-77.632;2024-01-16T10:25:06;7.13;;;2.13;;
70293;SDS011;74367;35.280;-77.632;2024-01-16T10:27:38;9.15;;;3.00;;
70293;SDS011;74367;35.280;-77.632;2024-01-16T10:30:05;10.57;;;2.78;;
70293;SDS011;74367;35.280;-77.632;2024-01-16T10:32:36;8.13;;;2.83;;
70293;SDS011;74367;35.280;-77.632;2024-01-16T10:37:48;10.37;;;2.43;;
70293;SDS011;74367;35.280;-77.632;2024-01-16T10:40:17;9.88;;;2.92;;
70293;SDS011;74367;35.280;-77.632;2024-01-16T10:42:56;8.80;;;2.55;;
70293;SDS011;74367;35.280;-77.632;2024-01-16T10:45:23;7.65;;;2.17;;
70293;SDS011;74367;35.280;-77.632;2024-01-16T10:48:00;7.75;;;2.80;;
70293;SDS011;74367;35.280;-77.632;2024-01-16T10:50:28;9.43;;;2.67;;
70293;SDS011;74367;35.280;-77.632;2024-01-16T10:52:54;10.32;;;2.80;;
70293;SDS011;74367;35.280;-77.632;2024-01-16T10:55:23;6.85;;;2.70;;
70293;SDS011;74367;35.280;-77.632;2024-01-16T10:57:50;7.07;;;1.85;;
70293;SDS011;74367;35.280;-77.632;2024-01-16T11:00:20;10.77;;;2.67;;
70293;SDS011;74367;35.280;-77.632;2024-01-16T11:02:51;7.03;;;2.90;;
70293;SDS011;74367;35.280;-77.632;2024-01-16T11:05:28;9.70;;;2.78;;
70293;SDS011;74367;35.280;-77.632;2024-01-16T11:07:58;12.50;;;3.28;;
70293;SDS011;74367;35.280;-77.632;2024-01-16T11:10:29;8.93;;;2.03;;
70293;SDS011;74367;35.280;-77.632;2024-01-16T11:12:59;9.73;;;2.20;;
70293;SDS011;74367;35.280;-77.632;2024-01-16T11:15:26;9.23;;;3.13;;
70293;SDS011;74367;35.280;-77.632;2024-01-16T11:17:56;7.60;;;2.58;;
70293;SDS011;74367;35.280;-77.632;2024-01-16T11:20:25;6.15;;;2.22;;
70293;SDS011;74367;35.280;-77.632;2024-01-16T11:22:52;8.85;;;2.78;;
70293;SDS011;74367;35.280;-77.632;2024-01-16T11:25:30;6.97;;;2.70;;
70293;SDS011;74367;35.280;-77.632;2024-01-16T11:28:19;11.53;;;2.60;;
70293;SDS011;74367;35.280;-77.632;2024-01-16T11:30:45;12.65;;;2.25;;
70293;SDS011;74367;35.280;-77.632;2024-01-16T11:35:58;12.75;;;2.50;;
70293;SDS011;74367;35.280;-77.632;2024-01-16T11:38:25;11.18;;;2.40;;
70293;SDS011;74367;35.280;-77.632;2024-01-16T11:40:52;8.93;;;1.90;;
70293;SDS011;74367;35.280;-77.632;2024-01-16T11:43:37;5.30;;;1.85;;
70293;SDS011;74367;35.280;-77.632;2024-01-16T11:46:04;15.25;;;3.10;;
70293;SDS011;74367;35.280;-77.632;2024-01-16T11:48:33;8.60;;;1.95;;
70293;SDS011;74367;35.280;-77.632;2024-01-16T11:51:00;20.70;;;3.22;;
70293;SDS011;74367;35.280;-77.632;2024-01-16T11:53:50;12.17;;;2.50;;
70293;SDS011;74367;35.280;-77.632;2024-01-16T11:59:08;12.80;;;2.78;;
70293;SDS011;74367;35.280;-77.632;2024-01-16T12:01:50;18.83;;;2.97;;
70293;SDS011;74367;35.280;-77.632;2024-01-16T12:04:20;14.40;;;3.42;;
70293;SDS011;74367;35.280;-77.632;2024-01-16T12:06:56;10.80;;;2.40;;
70293;SDS011;74367;35.280;-77.632;2024-01-16T12:09:26;13.38;;;2.63;;
70293;SDS011;74367;35.280;-77.632;2024-01-16T12:12:00;14.10;;;3.10;;
70293;SDS011;74367;35.280;-77.632;2024-01-16T12:14:27;12.25;;;3.25;;
70293;SDS011;74367;35.280;-77.632;2024-01-16T12:17:12;14.65;;;3.03;;
70293;SDS011;74367;35.280;-77.632;2024-01-16T12:19:39;12.17;;;3.33;;
70293;SDS011;74367;35.280;-77.632;2024-01-16T12:22:10;12.10;;;2.97;;
70293;SDS011;74367;35.280;-77.632;2024-01-16T12:24:39;14.10;;;3.60;;
70293;SDS011;74367;35.280;-77.632;2024-01-16T12:27:05;12.65;;;3.40;;
70293;SDS011;74367;35.280;-77.632;2024-01-16T12:29:33;10.35;;;2.85;;
70293;SDS011;74367;35.280;-77.632;2024-01-16T12:32:12;10.63;;;2.63;;
70293;SDS011;74367;35.280;-77.632;2024-01-16T12:34:49;14.15;;;2.80;;
70293;SDS011;74367;35.280;-77.632;2024-01-16T12:37:14;13.57;;;2.58;;
70293;SDS011;74367;35.280;-77.632;2024-01-16T12:39:40;9.93;;;2.33;;
70293;SDS011;74367;35.280;-77.632;2024-01-16T12:42:07;9.30;;;2.50;;
70293;SDS011;74367;35.280;-77.632;2024-01-16T12:44:37;12.43;;;2.60;;
70293;SDS011;74367;35.280;-77.632;2024-01-16T12:47:03;14.10;;;3.05;;
70293;SDS011;74367;35.280;-77.632;2024-01-16T12:49:29;8.55;;;2.38;;
70293;SDS011;74367;35.280;-77.632;2024-01-16T12:55:00;9.27;;;2.28;;
70293;SDS011;74367;35.280;-77.632;2024-01-16T12:57:27;10.33;;;2.67;;
70293;SDS011;74367;35.280;-77.632;2024-01-16T12:59:53;9.85;;;3.42;;
70293;SDS011;74367;35.280;-77.632;2024-01-16T13:02:22;10.45;;;3.28;;
70293;SDS011;74367;35.280;-77.632;2024-01-16T13:04:58;14.98;;;2.95;;
70293;SDS011;74367;35.280;-77.632;2024-01-16T13:07:27;13.55;;;3.78;;
70293;SDS011;74367;35.280;-77.632;2024-01-16T13:10:19;10.20;;;3.90;;
70293;SDS011;74367;35.280;-77.632;2024-01-16T13:12:45;12.05;;;3.42;;
70293;SDS011;74367;35.280;-77.632;2024-01-16T13:15:11;9.88;;;3.47;;
70293;SDS011;74367;35.280;-77.632;2024-01-16T13:17:42;12.75;;;2.75;;
70293;SDS011;74367;35.280;-77.632;2024-01-16T13:20:08;18.25;;;3.78;;
70293;SDS011;74367;35.280;-77.632;2024-01-16T13:22:35;11.97;;;3.10;;
70293;SDS011;74367;35.280;-77.632;2024-01-16T13:25:01;11.82;;;3.35;;
70293;SDS011;74367;35.280;-77.632;2024-01-16T13:27:27;15.82;;;3.47;;
70293;SDS011;74367;35.280;-77.632;2024-01-16T13:29:55;11.95;;;3.20;;
70293;SDS011;74367;35.280;-77.632;2024-01-16T13:32:22;12.73;;;3.33;;
70293;SDS011;74367;35.280;-77.632;2024-01-16T13:34:48;11.60;;;3.07;;
70293;SDS011;74367;35.280;-77.632;2024-01-16T13:37:19;12.23;;;3.47;;
70293;SDS011;74367;35.280;-77.632;2024-01-16T13:39:47;16.27;;;2.78;;
70293;SDS011;74367;35.280;-77.632;2024-01-16T13:42:13;10.10;;;2.88;;
70293;SDS011;74367;35.280;-77.632;2024-01-16T13:44:43;12.80;;;3.20;;
70293;SDS011;74367;35.280;-77.632;2024-01-16T13:47:10;14.30;;;3.70;;
70293;SDS011;74367;35.280;-77.632;2024-01-16T13:49:36;17.73;;;3.83;;
70293;SDS011;74367;35.280;-77.632;2024-01-16T13:52:02;17.33;;;4.07;;
70293;SDS011;74367;35.280;-77.632;2024-01-16T13:54:28;18.93;;;3.33;;
70293;SDS011;74367;35.280;-77.632;2024-01-16T13:56:54;23.00;;;3.92;;
70293;SDS011;74367;35.280;-77.632;2024-01-16T13:59:20;17.67;;;3.50;;
70293;SDS011;74367;35.280;-77.632;2024-01-16T14:01:46;16.65;;;3.25;;
70293;SDS011;74367;35.280;-77.632;2024-01-16T14:04:12;18.20;;;3.77;;
70293;SDS011;74367;35.280;-77.632;2024-01-16T14:06:40;19.80;;;3.80;;
70293;SDS011;74367;35.280;-77.632;2024-01-16T14:09:06;16.50;;;3.15;;
70293;SDS011;74367;35.280;-77.632;2024-01-16T14:11:34;19.45;;;4.25;;
70293;SDS011;74367;35.280;-77.632;2024-01-16T14:14:00;19.77;;;4.00;;
70293;SDS011;74367;35.280;-77.632;2024-01-16T14:16:28;14.43;;;3.97;;
70293;SDS011;74367;35.280;-77.632;2024-01-16T14:18:54;19.60;;;4.78;;
70293;SDS011;74367;35.280;-77.632;2024-01-16T14:21:20;18.73;;;4.72;;
70293;SDS011;74367;35.280;-77.632;2024-01-16T14:23:46;17.10;;;3.83;;
70293;SDS011;74367;35.280;-77.632;2024-01-16T14:26:12;13.98;;;3.70;;
70293;SDS011;74367;35.280;-77.632;2024-01-16T14:28:38;15.25;;;4.22;;
70293;SDS011;74367;35.280;-77.632;2024-01-16T14:31:04;18.23;;;4.00;;